createdAt,value
2019-02-02T08:00:42.929Z,3.40
2019-02-02T08:03:46.954Z,3.60
2019-02-02T08:06:17.863Z,3.70
2019-02-02T08:08:49.037Z,3.50
2019-02-02T08:11:20.264Z,3.40
2019-02-02T08:13:50.753Z,3.50
2019-02-02T08:16:20.777Z,3.50
2019-02-02T08:18:52.754Z,3.60
2019-02-02T08:21:24.185Z,3.70
2019-02-02T08:23:56.102Z,3.80
2019-02-02T08:26:27.900Z,3.80
2019-02-02T08:28:59.118Z,3.90
2019-02-02T08:31:30.195Z,4.10
2019-02-02T08:34:01.620Z,5.10
2019-02-02T08:36:33.440Z,4.60
2019-02-02T08:39:06.453Z,4.60
2019-02-02T08:41:38.467Z,4.50
2019-02-02T08:44:09.588Z,4.60
2019-02-02T08:46:40.640Z,4.80
2019-02-02T08:49:11.361Z,4.70
2019-02-02T08:51:42.408Z,4.60
2019-02-02T08:54:13.939Z,4.60
2019-02-02T08:56:44.266Z,4.70
2019-02-02T08:59:14.874Z,4.90
2019-02-02T09:01:47.858Z,5.20
2019-02-02T09:04:17.736Z,6.50
2019-02-02T09:06:48.072Z,6.30
2019-02-02T09:09:19.087Z,7.20
2019-02-02T09:11:49.126Z,7.10
2019-02-02T09:14:19.140Z,6.60
2019-02-02T09:16:50.318Z,6.10
2019-02-02T09:19:20.288Z,6.30
2019-02-02T09:21:50.349Z,6.00
2019-02-02T09:24:20.275Z,5.70
2019-02-02T09:26:50.248Z,6.40
2019-02-02T09:29:20.338Z,6.40
2019-02-02T09:31:50.420Z,6.30
2019-02-02T09:34:20.793Z,6.10
2019-02-02T09:36:51.495Z,6.00
2019-02-02T09:39:22.238Z,6.00
2019-02-02T09:41:52.666Z,6.00
2019-02-02T09:44:22.581Z,6.00
2019-02-02T09:46:52.546Z,6.10
2019-02-02T09:49:22.454Z,6.20
2019-02-02T09:51:52.428Z,6.20
2019-02-02T09:54:26.558Z,6.20
2019-02-02T09:56:53.857Z,6.30
2019-02-02T09:59:23.847Z,6.60
2019-02-02T10:01:53.761Z,6.70
2019-02-02T10:04:23.664Z,6.80
2019-02-02T10:06:53.653Z,6.90
2019-02-02T10:09:23.716Z,6.70
2019-02-02T10:11:53.686Z,6.70
2019-02-02T10:14:23.650Z,6.70
2019-02-02T10:16:53.660Z,6.80
2019-02-02T10:19:23.623Z,7.00
2019-02-02T10:21:53.536Z,6.50
2019-02-02T10:24:23.504Z,6.10
2019-02-02T10:26:53.425Z,6.40
2019-02-02T10:29:23.389Z,6.90
2019-02-02T10:31:53.366Z,7.60
2019-02-02T10:34:23.405Z,11.60
2019-02-02T10:36:53.333Z,13.60
2019-02-02T10:39:23.298Z,14.40
2019-02-02T10:41:53.269Z,14.40
2019-02-02T10:44:23.179Z,11.40
2019-02-02T10:46:53.153Z,11.20
2019-02-02T10:49:23.176Z,11.30
2019-02-02T10:51:53.163Z,13.00
2019-02-02T10:54:23.086Z,12.90
2019-02-02T10:56:53.156Z,9.90
2019-02-02T10:59:23.128Z,8.40
2019-02-02T11:01:53.042Z,7.40
2019-02-02T11:04:25.793Z,6.90
2019-02-02T11:06:56.911Z,6.60
2019-02-02T11:09:28.678Z,6.20
2019-02-02T11:11:59.771Z,6.00
2019-02-02T11:14:31.167Z,5.80
2019-02-02T11:17:02.109Z,6.00
2019-02-02T11:19:33.246Z,6.90
2019-02-02T11:22:04.083Z,8.00
2019-02-02T11:24:34.452Z,7.00
2019-02-02T11:27:05.584Z,6.40
2019-02-02T11:29:37.120Z,7.30
2019-02-02T11:32:07.179Z,7.70
2019-02-02T11:34:37.151Z,9.10
2019-02-02T11:37:07.216Z,10.50
2019-02-02T11:39:37.207Z,11.30
2019-02-02T11:42:07.284Z,11.50
2019-02-02T11:44:37.316Z,12.10
2019-02-02T11:47:07.399Z,12.80
2019-02-02T11:49:37.314Z,12.50
2019-02-02T11:52:07.398Z,13.80
2019-02-02T11:54:37.381Z,13.40
2019-02-02T11:57:07.361Z,10.40
2019-02-02T11:59:37.334Z,9.10
2019-02-02T12:02:14.354Z,8.30
2019-02-02T12:04:38.961Z,7.60
2019-02-02T12:07:08.954Z,7.60
2019-02-02T12:09:38.939Z,7.20
2019-02-02T12:12:08.922Z,7.00
2019-02-02T12:14:38.825Z,7.10
2019-02-02T12:17:08.922Z,7.40
2019-02-02T12:19:39.646Z,7.50
2019-02-02T12:22:10.223Z,7.20
2019-02-02T12:24:40.272Z,7.30
2019-02-02T12:27:10.177Z,7.40
2019-02-02T12:29:40.155Z,7.20
2019-02-02T12:32:10.179Z,7.00
2019-02-02T12:34:40.162Z,6.70
2019-02-02T12:37:10.069Z,6.70
2019-02-02T12:39:40.043Z,6.90
2019-02-02T12:42:10.019Z,7.00
2019-02-02T12:44:39.918Z,7.10
2019-02-02T12:47:09.904Z,7.10
2019-02-02T12:49:39.813Z,7.10
2019-02-02T12:52:09.901Z,7.00
2019-02-02T12:54:39.811Z,7.00
2019-02-02T12:57:09.723Z,7.00
2019-02-02T12:59:39.702Z,6.80
2019-02-02T13:02:09.691Z,6.90
2019-02-02T13:04:39.606Z,6.90
2019-02-02T13:07:09.597Z,7.10
2019-02-02T13:09:39.562Z,7.10
2019-02-02T13:12:09.751Z,7.00
2019-02-02T13:14:39.819Z,7.00
2019-02-02T13:17:10.412Z,7.00
2019-02-02T13:19:42.739Z,6.90
2019-02-02T13:22:13.950Z,6.80
2019-02-02T13:24:47.079Z,6.80
2019-02-02T13:27:18.238Z,6.80
2019-02-02T13:29:48.877Z,6.80
2019-02-02T13:32:18.836Z,6.80
2019-02-02T13:34:49.327Z,6.80
2019-02-02T13:37:20.042Z,6.80
2019-02-02T13:39:53.877Z,6.90
2019-02-02T13:42:23.842Z,6.70
2019-02-02T13:44:55.484Z,6.70
2019-02-02T13:47:26.482Z,6.80
2019-02-02T13:49:56.677Z,6.70
2019-02-02T13:52:28.123Z,6.80
2019-02-02T13:54:59.187Z,6.70
2019-02-02T13:57:29.985Z,6.70
2019-02-02T14:00:00.052Z,6.80
2019-02-02T14:02:31.044Z,6.70
2019-02-02T14:05:02.514Z,6.70
2019-02-02T14:07:32.491Z,6.70
2019-02-02T14:10:02.445Z,6.70
2019-02-02T14:12:32.685Z,6.70
2019-02-02T14:15:02.651Z,6.70
2019-02-02T14:17:33.724Z,6.60
2019-02-02T14:20:04.495Z,6.60
2019-02-02T14:22:35.069Z,6.60
2019-02-02T14:25:07.970Z,6.60
2019-02-02T14:27:39.713Z,6.60
2019-02-02T14:30:19.545Z,6.60
2019-02-02T14:32:54.585Z,6.60
2019-02-02T14:35:26.599Z,6.60
2019-02-02T14:37:57.290Z,6.50
2019-02-02T14:40:27.218Z,6.50
2019-02-02T14:42:57.216Z,6.50
2019-02-02T14:45:28.051Z,6.40
2019-02-02T14:47:59.584Z,6.40
2019-02-02T14:50:32.089Z,6.30
2019-02-02T14:53:05.087Z,6.30
2019-02-02T14:55:36.051Z,6.20
2019-02-02T14:58:12.529Z,6.20
2019-02-02T15:00:42.871Z,6.20
2019-02-02T15:03:25.611Z,6.10
2019-02-02T15:05:47.083Z,6.10
2019-02-02T15:08:18.626Z,6.10
2019-02-02T15:10:49.042Z,6.10
2019-02-02T15:13:19.051Z,6.00
2019-02-02T15:15:49.028Z,6.00
2019-02-02T15:18:20.132Z,6.00
2019-02-02T15:20:50.127Z,5.90
2019-02-02T15:23:20.033Z,5.90
2019-02-02T15:38:45.333Z,5.80
2019-02-02T15:41:35.291Z,5.90
2019-02-02T15:53:13.492Z,5.70
2019-02-02T15:55:43.467Z,5.60
2019-02-02T15:58:18.210Z,5.60
2019-02-02T16:00:48.115Z,5.50
2019-02-02T16:03:18.091Z,5.50
2019-02-02T16:05:48.006Z,5.50
2019-02-02T16:08:17.981Z,5.50
2019-02-02T16:10:48.151Z,5.50
2019-02-02T16:13:18.118Z,5.40
2019-02-02T16:15:48.094Z,5.40
2019-02-02T16:18:18.004Z,5.40
2019-02-02T16:20:47.971Z,5.40
2019-02-02T16:23:17.948Z,5.40
2019-02-02T16:25:47.948Z,5.30
2019-02-02T16:28:18.143Z,5.30
2019-02-02T16:30:48.080Z,5.20
2019-02-02T16:33:18.092Z,5.00
2019-02-02T16:35:48.103Z,5.10
2019-02-02T16:38:18.165Z,5.10
2019-02-02T16:40:49.735Z,5.00
2019-02-02T16:43:19.820Z,5.00
2019-02-02T16:45:49.717Z,5.00
2019-02-02T16:48:19.792Z,4.90
2019-02-02T16:50:49.871Z,4.90
2019-02-02T16:53:27.127Z,4.80
2019-02-02T16:55:59.417Z,4.80
2019-02-02T16:58:29.383Z,4.90
2019-02-02T17:00:59.352Z,4.90
2019-02-02T17:03:29.315Z,5.00
2019-02-02T17:05:59.283Z,4.90
2019-02-02T17:08:29.292Z,5.00
2019-02-02T17:10:59.263Z,4.90
2019-02-02T17:13:29.236Z,4.80
2019-02-02T17:15:59.211Z,4.90
2019-02-02T17:18:29.106Z,4.80
2019-02-02T17:20:59.068Z,4.80
2019-02-02T17:23:28.968Z,4.90
2019-02-02T17:25:58.990Z,4.90
2019-02-02T17:28:29.004Z,4.90
2019-02-02T17:30:59.003Z,4.90
2019-02-02T17:33:28.993Z,4.80
2019-02-02T17:35:58.971Z,4.70
2019-02-02T17:38:28.877Z,4.70
2019-02-02T17:40:58.802Z,4.70
2019-02-02T17:43:28.825Z,4.70
2019-02-02T17:45:58.886Z,4.70
2019-02-02T17:48:28.851Z,4.60
2019-02-02T17:50:58.754Z,4.50
2019-02-02T17:53:28.728Z,4.50
2019-02-02T17:55:58.688Z,4.50
2019-02-02T17:58:38.944Z,4.30
2019-02-02T18:01:00.314Z,4.20
2019-02-02T18:03:30.228Z,4.20
2019-02-02T18:06:00.207Z,4.10
2019-02-02T18:08:30.128Z,4.20
2019-02-02T18:11:00.109Z,4.20
2019-02-02T18:13:30.004Z,4.20
2019-02-02T18:16:00.083Z,4.20
2019-02-02T18:18:30.000Z,4.20
2019-02-02T18:20:59.964Z,4.20
2019-02-02T18:27:15.349Z,4.20
2019-02-02T18:29:45.283Z,4.20
2019-02-02T18:32:15.255Z,4.30
2019-02-02T18:34:51.177Z,4.40
2019-02-02T18:37:16.812Z,4.30
2019-02-02T18:39:46.720Z,4.30
2019-02-02T18:42:16.685Z,4.40
2019-02-02T18:44:46.659Z,4.50
2019-02-02T18:47:16.626Z,4.50
2019-02-02T18:49:46.751Z,4.50
2019-02-02T18:52:16.710Z,4.50
2019-02-02T18:54:46.668Z,4.50
2019-02-02T18:57:16.653Z,4.50
2019-02-02T18:59:46.648Z,4.50
2019-02-02T19:02:16.625Z,4.50
2019-02-02T19:04:46.539Z,4.50
2019-02-02T19:07:16.513Z,4.40
2019-02-02T19:09:46.476Z,4.40
2019-02-02T19:12:16.453Z,4.40
2019-02-02T19:14:46.460Z,4.40
2019-02-02T19:17:16.435Z,4.40
2019-02-02T19:19:46.333Z,4.30
2019-02-02T19:22:16.297Z,4.30
2019-02-02T19:24:47.755Z,4.30
2019-02-02T19:27:17.718Z,4.30
2019-02-02T19:29:47.696Z,4.30
2019-02-02T19:32:17.666Z,4.30
2019-02-02T19:34:47.599Z,4.30
2019-02-02T19:37:17.563Z,4.20
2019-02-02T19:39:47.677Z,4.20
2019-02-02T19:42:18.770Z,4.20
2019-02-02T19:44:48.731Z,4.20
2019-02-02T19:47:18.640Z,4.20
2019-02-02T19:49:48.612Z,4.10
2019-02-02T19:52:20.121Z,4.10
2019-02-02T19:54:50.104Z,4.10
2019-02-02T19:57:19.995Z,4.10
2019-02-02T19:59:49.962Z,4.10
2019-02-02T20:02:19.866Z,4.20
2019-02-02T20:04:49.873Z,4.20
2019-02-02T20:07:19.771Z,4.20
2019-02-02T20:09:49.846Z,4.20
2019-02-02T20:12:19.748Z,4.20
2019-02-02T20:14:49.719Z,4.20
2019-02-02T20:17:19.632Z,4.20
2019-02-02T20:19:49.592Z,4.20
2019-02-02T20:22:22.456Z,4.20
2019-02-02T20:24:52.424Z,4.20
2019-02-02T20:27:22.327Z,4.10
2019-02-02T20:29:52.319Z,4.20
2019-02-02T20:32:22.275Z,4.20
2019-02-02T20:34:53.269Z,4.20
2019-02-02T20:37:23.179Z,4.20
2019-02-02T20:39:53.148Z,4.20
2019-02-02T20:42:23.110Z,4.30
2019-02-02T20:44:53.016Z,4.30
2019-02-02T20:47:22.991Z,4.20
2019-02-02T20:49:53.676Z,4.30
2019-02-02T20:52:23.574Z,4.30
2019-02-02T20:54:53.651Z,4.30
2019-02-02T20:57:23.546Z,4.30
2019-02-02T20:59:53.516Z,4.30
2019-02-02T21:02:24.492Z,4.20
2019-02-02T21:04:54.575Z,4.20
2019-02-02T21:07:24.479Z,4.10
2019-02-02T21:09:54.447Z,4.10
2019-02-02T21:12:24.408Z,4.10
2019-02-02T21:14:55.210Z,4.10
2019-02-02T21:17:25.287Z,4.10
2019-02-02T21:19:55.282Z,4.10
2019-02-02T21:22:25.470Z,4.10
2019-02-02T21:24:55.586Z,4.00
2019-02-02T21:27:27.690Z,4.10
2019-02-02T21:29:57.634Z,4.10
2019-02-02T21:32:27.725Z,4.00
2019-02-02T21:34:57.726Z,4.00
2019-02-02T21:37:27.821Z,4.00
2019-02-02T21:39:58.102Z,4.00
2019-02-02T21:42:28.173Z,4.00
2019-02-02T21:44:58.150Z,4.00
2019-02-02T21:47:28.231Z,4.00
2019-02-02T21:49:58.313Z,4.00
2019-02-02T21:52:28.836Z,3.90
2019-02-02T21:54:58.806Z,3.90
2019-02-02T21:57:28.779Z,3.90
2019-02-02T22:00:00.608Z,3.90
2019-02-02T22:02:32.195Z,3.90
2019-02-02T22:05:05.633Z,4.00
2019-02-02T22:07:35.712Z,3.90
2019-02-02T22:10:11.138Z,3.90
2019-02-02T22:12:41.308Z,3.90
2019-02-02T22:15:22.546Z,3.90
2019-02-02T22:17:52.654Z,3.90
2019-02-02T22:20:22.962Z,3.80
2019-02-02T22:22:53.175Z,3.80
2019-02-02T22:25:27.884Z,3.70
2019-02-02T22:27:57.999Z,3.70
2019-02-02T22:30:33.669Z,3.60
2019-02-02T22:33:03.777Z,3.60
2019-02-02T22:35:33.752Z,3.60
2019-02-02T22:38:04.024Z,3.70
2019-02-02T22:40:34.106Z,3.70
2019-02-02T22:43:04.209Z,3.70
2019-02-02T22:45:34.209Z,3.70
2019-02-02T22:48:06.317Z,3.70
2019-02-02T22:50:36.489Z,3.60
2019-02-02T22:53:06.667Z,3.60
2019-02-02T22:55:36.680Z,3.70
2019-02-02T22:58:06.903Z,3.70
2019-02-02T23:03:50.553Z,3.60
2019-02-02T23:06:46.843Z,3.60
2019-02-02T23:10:11.382Z,3.60
2019-02-02T23:12:47.247Z,3.60
2019-02-02T23:15:27.142Z,3.50
2019-02-02T23:17:57.122Z,3.60
2019-02-02T23:20:27.024Z,3.50
2019-02-02T23:22:57.009Z,3.50
2019-02-02T23:25:27.102Z,3.60
2019-02-02T23:27:57.583Z,3.60
2019-02-02T23:30:27.656Z,3.50
2019-02-02T23:32:57.600Z,3.50
2019-02-02T23:35:27.689Z,3.50
2019-02-02T23:37:57.758Z,3.50
2019-02-02T23:40:27.769Z,3.50
2019-02-02T23:42:57.836Z,3.60
2019-02-02T23:45:27.853Z,3.60
2019-02-02T23:47:57.820Z,3.50
2019-02-02T23:50:29.025Z,3.50
2019-02-02T23:52:59.102Z,3.60
2019-02-02T23:55:29.012Z,3.50
2019-02-02T23:57:58.988Z,3.50
